Ahoskie, North Carolina
Current Conditions -  °F | °C
As of 1:55 PM on Tuesday 27 Jan 2015 (Local Time) from KASJ Reporting Station
Overcast Overcast  
Wind Chill: 28°   Ceiling: 2000
Heat Index: 33°   Visibility: 10mi
Dew Point: 27°   Wind: 6mph
Humidity: 77%   Direction: 350°N
Pressure: 29.8"   Gusts: NA
Location:  36.29°N, 76.98°W
Report Text: KASJ 271855Z AUTO 35005KT 10SM BKN020 BKN026 OVC043 01/M03 A2980 RMK AO2 T00071030
Loading
Personal Weather Stations






























Interactive Weather Map New forecast layout! Learn more

10-Day Weather Forecast

Advertisements
Track Severe Weather on mobile